Huvudsida
METAR-TAF:

METAR-TAF

Flygplatser :

Egilsstaðirs flygplats

Egilsstaðir, Island

latitud: 65-17N, longitud: 014-24W, höjd: 23 m

Aktuellt väderrapport

Denna rapport gjordes för 22 minuter sedan, klockan 18:00 UTC
Vind 11 kt från syd/sydost
Temperatur 15°C
Fuktighet 51%
Tryck 1014 hPa
Sikt 10 km eller mer
Inga moln under 1 500 m eller inga cumulonimbus

METAR: BIEG 141800Z 16011KT CAVOK 15/05 Q1014

Tid: 18:22 (18:22 UTC)

Väderprognos

Denna rapport gjordes för 2 timmar och 10 minuter sedan, klockan 16:12 UTC
Prognos gäller från 14 kl. 18 UTC till 15 kl. 18 UTC
Vind 10 kt från ost/sydost
Sikt 10 km eller mer
Få moln på en höjd av 3500 ft
Blir
från 15 kl. 07 UTC till 15 kl. 09 UTC
Vind 10 kt från nord

TAF: BIEG 141612Z 1418/1518 12010KT 9999 FEW035 TX14/1418Z TN06/1503Z BECMG 1507/1509 36010KT

Aktuella väderrapporter och prognoser från 4000 flygplatser (METAR- och TAF-rapporter).

De tillgängliga stationerna syns som gula och röda prickar på kartan.

För musen över prickarna för att se namnen på stationerna.

Klicka sedan för att få väderrapporter och prognoser.

För att ändra kartan: Klicka på de gröna knapparna med ett svart kors på för att zooma in; den gröna knappen med ett streck på för att zooma ut; eller på de gröna pilarna för angränsande kartor.


METAR-TAF: